sensor_id;sensor_type;location;lat;lon;timestamp;temperature;humidity
26579;DHT22;14227;47.674;19.320;2023-03-31T00:00:19;15.10;52.10
26579;DHT22;14227;47.674;19.320;2023-03-31T00:02:45;15.10;52.10
26579;DHT22;14227;47.674;19.320;2023-03-31T00:05:10;15.10;52.10
26579;DHT22;14227;47.674;19.320;2023-03-31T00:07:36;15.10;52.20
26579;DHT22;14227;47.674;19.320;2023-03-31T00:10:05;15.10;52.20
26579;DHT22;14227;47.674;19.320;2023-03-31T00:12:32;15.10;52.20
26579;DHT22;14227;47.674;19.320;2023-03-31T00:14:57;15.10;52.30
26579;DHT22;14227;47.674;19.320;2023-03-31T00:17:23;15.10;52.20
26579;DHT22;14227;47.674;19.320;2023-03-31T00:19:49;15.10;52.20
26579;DHT22;14227;47.674;19.320;2023-03-31T00:22:15;15.10;52.20
26579;DHT22;14227;47.674;19.320;2023-03-31T00:24:47;15.10;52.20
26579;DHT22;14227;47.674;19.320;2023-03-31T00:27:13;15.10;52.20
26579;DHT22;14227;47.674;19.320;2023-03-31T00:29:38;15.10;52.20
26579;DHT22;14227;47.674;19.320;2023-03-31T00:32:07;15.10;52.20
26579;DHT22;14227;47.674;19.320;2023-03-31T00:34:33;15.10;52.80
26579;DHT22;14227;47.674;19.320;2023-03-31T00:36:59;15.00;52.10
26579;DHT22;14227;47.674;19.320;2023-03-31T00:39:28;15.10;52.20
26579;DHT22;14227;47.674;19.320;2023-03-31T00:41:57;15.10;52.30
26579;DHT22;14227;47.674;19.320;2023-03-31T00:44:24;15.10;52.30
26579;DHT22;14227;47.674;19.320;2023-03-31T00:47:12;15.10;52.30
26579;DHT22;14227;47.674;19.320;2023-03-31T00:49:44;15.00;52.20
26579;DHT22;14227;47.674;19.320;2023-03-31T00:55:13;15.10;52.40
26579;DHT22;14227;47.674;19.320;2023-03-31T00:57:42;15.00;52.30
26579;DHT22;14227;47.674;19.320;2023-03-31T01:00:13;15.00;52.40
26579;DHT22;14227;47.674;19.320;2023-03-31T01:02:45;15.00;52.40
26579;DHT22;14227;47.674;19.320;2023-03-31T01:05:22;15.00;52.40
26579;DHT22;14227;47.674;19.320;2023-03-31T01:07:50;15.00;52.30
26579;DHT22;14227;47.674;19.320;2023-03-31T01:10:16;15.00;52.30
26579;DHT22;14227;47.674;19.320;2023-03-31T01:12:48;15.00;52.40
26579;DHT22;14227;47.674;19.320;2023-03-31T01:15:14;15.00;52.30
26579;DHT22;14227;47.674;19.320;2023-03-31T01:17:41;15.00;52.30
26579;DHT22;14227;47.674;19.320;2023-03-31T01:20:36;15.00;52.30
26579;DHT22;14227;47.674;19.320;2023-03-31T01:29:07;15.00;52.30
26579;DHT22;14227;47.674;19.320;2023-03-31T01:34:23;15.00;52.50
26579;DHT22;14227;47.674;19.320;2023-03-31T01:37:26;15.00;52.50
26579;DHT22;14227;47.674;19.320;2023-03-31T01:42:36;14.90;52.40
26579;DHT22;14227;47.674;19.320;2023-03-31T01:45:19;15.00;52.50
26579;DHT22;14227;47.674;19.320;2023-03-31T01:53:14;14.90;52.40
26579;DHT22;14227;47.674;19.320;2023-03-31T01:58:43;14.90;52.40
26579;DHT22;14227;47.674;19.320;2023-03-31T02:01:23;14.90;52.40
26579;DHT22;14227;47.674;19.320;2023-03-31T02:03:57;14.90;52.40
26579;DHT22;14227;47.674;19.320;2023-03-31T02:06:27;14.90;52.50
26579;DHT22;14227;47.674;19.320;2023-03-31T02:08:59;14.90;52.50
26579;DHT22;14227;47.674;19.320;2023-03-31T02:11:27;14.90;52.50
26579;DHT22;14227;47.674;19.320;2023-03-31T02:13:55;14.90;52.40
26579;DHT22;14227;47.674;19.320;2023-03-31T02:16:25;14.90;52.40
26579;DHT22;14227;47.674;19.320;2023-03-31T02:18:55;15.00;52.40
26579;DHT22;14227;47.674;19.320;2023-03-31T02:21:29;14.90;52.30
26579;DHT22;14227;47.674;19.320;2023-03-31T02:23:59;14.90;52.30
26579;DHT22;14227;47.674;19.320;2023-03-31T02:26:30;14.90;52.30
26579;DHT22;14227;47.674;19.320;2023-03-31T02:28:58;14.90;52.30
26579;DHT22;14227;47.674;19.320;2023-03-31T02:31:45;14.90;52.20
26579;DHT22;14227;47.674;19.320;2023-03-31T02:34:12;14.90;52.30
26579;DHT22;14227;47.674;19.320;2023-03-31T02:36:40;14.90;52.20
26579;DHT22;14227;47.674;19.320;2023-03-31T02:39:09;14.90;52.30
26579;DHT22;14227;47.674;19.320;2023-03-31T02:41:36;14.90;52.20
26579;DHT22;14227;47.674;19.320;2023-03-31T02:44:03;14.90;52.20
26579;DHT22;14227;47.674;19.320;2023-03-31T02:46:29;14.90;52.20
26579;DHT22;14227;47.674;19.320;2023-03-31T02:48:58;14.90;52.10
26579;DHT22;14227;47.674;19.320;2023-03-31T03:00:06;14.90;52.10
26579;DHT22;14227;47.674;19.320;2023-03-31T03:08:41;14.90;52.10
26579;DHT22;14227;47.674;19.320;2023-03-31T03:11:14;14.90;52.10
26579;DHT22;14227;47.674;19.320;2023-03-31T03:16:32;14.80;51.90
26579;DHT22;14227;47.674;19.320;2023-03-31T03:19:03;14.80;51.90
26579;DHT22;14227;47.674;19.320;2023-03-31T03:21:30;14.80;51.90
26579;DHT22;14227;47.674;19.320;2023-03-31T03:23:56;14.80;51.90
26579;DHT22;14227;47.674;19.320;2023-03-31T03:26:22;14.80;51.80
26579;DHT22;14227;47.674;19.320;2023-03-31T03:28:49;14.80;51.70
26579;DHT22;14227;47.674;19.320;2023-03-31T03:31:16;14.80;51.70
26579;DHT22;14227;47.674;19.320;2023-03-31T03:33:42;14.80;51.70
26579;DHT22;14227;47.674;19.320;2023-03-31T03:36:08;14.80;51.70
26579;DHT22;14227;47.674;19.320;2023-03-31T03:38:33;14.80;51.70
26579;DHT22;14227;47.674;19.320;2023-03-31T03:40:59;14.80;51.60
26579;DHT22;14227;47.674;19.320;2023-03-31T03:43:25;14.80;51.60
26579;DHT22;14227;47.674;19.320;2023-03-31T03:45:51;14.80;51.50
26579;DHT22;14227;47.674;19.320;2023-03-31T03:48:17;14.80;51.50
26579;DHT22;14227;47.674;19.320;2023-03-31T03:50:44;14.80;51.50
26579;DHT22;14227;47.674;19.320;2023-03-31T03:53:11;14.70;51.30
26579;DHT22;14227;47.674;19.320;2023-03-31T03:55:37;14.80;51.50
26579;DHT22;14227;47.674;19.320;2023-03-31T03:58:03;14.70;51.40
26579;DHT22;14227;47.674;19.320;2023-03-31T04:00:29;14.70;52.10
26579;DHT22;14227;47.674;19.320;2023-03-31T04:02:54;14.80;51.50
26579;DHT22;14227;47.674;19.320;2023-03-31T04:05:20;14.80;51.60
26579;DHT22;14227;47.674;19.320;2023-03-31T04:07:46;14.70;51.50
26579;DHT22;14227;47.674;19.320;2023-03-31T04:10:12;14.70;51.50
26579;DHT22;14227;47.674;19.320;2023-03-31T04:12:37;14.70;51.50
26579;DHT22;14227;47.674;19.320;2023-03-31T04:15:04;14.70;51.50
26579;DHT22;14227;47.674;19.320;2023-03-31T04:17:30;14.70;51.50
26579;DHT22;14227;47.674;19.320;2023-03-31T04:20:00;14.70;51.50
26579;DHT22;14227;47.674;19.320;2023-03-31T04:22:29;14.70;51.50
26579;DHT22;14227;47.674;19.320;2023-03-31T04:25:02;14.70;51.50
26579;DHT22;14227;47.674;19.320;2023-03-31T04:27:28;14.70;51.60
26579;DHT22;14227;47.674;19.320;2023-03-31T04:29:55;14.70;51.50
26579;DHT22;14227;47.674;19.320;2023-03-31T04:32:21;14.70;51.50
26579;DHT22;14227;47.674;19.320;2023-03-31T04:34:47;14.70;51.50
26579;DHT22;14227;47.674;19.320;2023-03-31T04:37:15;14.70;51.50
26579;DHT22;14227;47.674;19.320;2023-03-31T04:39:41;14.70;51.50
26579;DHT22;14227;47.674;19.320;2023-03-31T04:42:11;14.70;51.50
26579;DHT22;14227;47.674;19.320;2023-03-31T04:44:36;14.70;51.50
26579;DHT22;14227;47.674;19.320;2023-03-31T04:47:02;14.70;51.40
26579;DHT22;14227;47.674;19.320;2023-03-31T04:49:28;14.70;51.40
26579;DHT22;14227;47.674;19.320;2023-03-31T04:51:57;14.60;51.30
26579;DHT22;14227;47.674;19.320;2023-03-31T04:54:22;14.60;51.30
26579;DHT22;14227;47.674;19.320;2023-03-31T04:56:48;14.60;51.20
26579;DHT22;14227;47.674;19.320;2023-03-31T04:59:14;14.60;51.20
26579;DHT22;14227;47.674;19.320;2023-03-31T05:01:39;14.60;51.30
26579;DHT22;14227;47.674;19.320;2023-03-31T05:04:09;14.60;51.30
26579;DHT22;14227;47.674;19.320;2023-03-31T05:06:35;14.60;51.30
26579;DHT22;14227;47.674;19.320;2023-03-31T05:09:00;14.60;51.30
26579;DHT22;14227;47.674;19.320;2023-03-31T05:11:26;14.60;51.30
26579;DHT22;14227;47.674;19.320;2023-03-31T05:13:53;14.60;51.40
26579;DHT22;14227;47.674;19.320;2023-03-31T05:16:19;14.60;51.40
26579;DHT22;14227;47.674;19.320;2023-03-31T05:18:47;14.60;51.40
26579;DHT22;14227;47.674;19.320;2023-03-31T05:21:18;14.60;51.50
26579;DHT22;14227;47.674;19.320;2023-03-31T05:23:45;14.60;51.50
26579;DHT22;14227;47.674;19.320;2023-03-31T05:26:12;14.60;51.60
26579;DHT22;14227;47.674;19.320;2023-03-31T05:28:38;14.60;51.60
26579;DHT22;14227;47.674;19.320;2023-03-31T05:31:05;14.50;51.70
26579;DHT22;14227;47.674;19.320;2023-03-31T05:33:31;14.60;51.90
26579;DHT22;14227;47.674;19.320;2023-03-31T05:35:57;14.50;51.90
26579;DHT22;14227;47.674;19.320;2023-03-31T05:38:25;14.50;52.00
26579;DHT22;14227;47.674;19.320;2023-03-31T05:40:54;14.50;52.10
26579;DHT22;14227;47.674;19.320;2023-03-31T05:43:20;14.50;52.10
26579;DHT22;14227;47.674;19.320;2023-03-31T05:45:46;14.50;52.10
26579;DHT22;14227;47.674;19.320;2023-03-31T05:48:17;14.50;52.20
26579;DHT22;14227;47.674;19.320;2023-03-31T05:50:42;14.50;52.30
26579;DHT22;14227;47.674;19.320;2023-03-31T05:53:08;14.50;52.40
26579;DHT22;14227;47.674;19.320;2023-03-31T05:55:37;14.50;52.40
26579;DHT22;14227;47.674;19.320;2023-03-31T05:58:03;14.50;52.50
26579;DHT22;14227;47.674;19.320;2023-03-31T06:00:29;14.50;52.60
26579;DHT22;14227;47.674;19.320;2023-03-31T06:02:56;14.50;52.60
26579;DHT22;14227;47.674;19.320;2023-03-31T06:05:22;14.50;52.70
26579;DHT22;14227;47.674;19.320;2023-03-31T06:07:51;14.50;52.80
26579;DHT22;14227;47.674;19.320;2023-03-31T06:10:18;14.50;52.80
26579;DHT22;14227;47.674;19.320;2023-03-31T06:12:44;14.50;52.90
26579;DHT22;14227;47.674;19.320;2023-03-31T06:15:10;14.50;52.90
26579;DHT22;14227;47.674;19.320;2023-03-31T06:17:36;14.40;52.90
26579;DHT22;14227;47.674;19.320;2023-03-31T06:20:01;14.50;53.10
26579;DHT22;14227;47.674;19.320;2023-03-31T06:22:29;14.50;53.00
26579;DHT22;14227;47.674;19.320;2023-03-31T06:24:54;14.50;53.10
26579;DHT22;14227;47.674;19.320;2023-03-31T06:27:20;14.50;53.10
26579;DHT22;14227;47.674;19.320;2023-03-31T06:29:46;14.50;53.20
26579;DHT22;14227;47.674;19.320;2023-03-31T06:32:12;14.50;53.20
26579;DHT22;14227;47.674;19.320;2023-03-31T06:34:37;14.50;53.30
26579;DHT22;14227;47.674;19.320;2023-03-31T06:37:05;14.40;53.20
26579;DHT22;14227;47.674;19.320;2023-03-31T06:39:39;14.40;53.20
26579;DHT22;14227;47.674;19.320;2023-03-31T06:42:49;14.50;53.40
26579;DHT22;14227;47.674;19.320;2023-03-31T06:46:12;14.50;53.20
26579;DHT22;14227;47.674;19.320;2023-03-31T06:50:02;14.50;53.20
26579;DHT22;14227;47.674;19.320;2023-03-31T07:07:21;14.20;54.40
26579;DHT22;14227;47.674;19.320;2023-03-31T07:09:47;13.80;55.50
26579;DHT22;14227;47.674;19.320;2023-03-31T07:12:21;13.70;56.40
26579;DHT22;14227;47.674;19.320;2023-03-31T07:15:12;13.50;57.10
26579;DHT22;14227;47.674;19.320;2023-03-31T07:21:36;13.50;58.00
26579;DHT22;14227;47.674;19.320;2023-03-31T07:30:47;13.40;59.00
26579;DHT22;14227;47.674;19.320;2023-03-31T07:33:28;13.50;59.30
26579;DHT22;14227;47.674;19.320;2023-03-31T07:35:54;13.60;59.40
26579;DHT22;14227;47.674;19.320;2023-03-31T07:38:28;13.60;59.40
26579;DHT22;14227;47.674;19.320;2023-03-31T07:40:53;13.70;59.50
26579;DHT22;14227;47.674;19.320;2023-03-31T07:43:20;13.70;59.50
26579;DHT22;14227;47.674;19.320;2023-03-31T07:45:48;13.80;59.60
26579;DHT22;14227;47.674;19.320;2023-03-31T07:48:14;13.80;59.60
26579;DHT22;14227;47.674;19.320;2023-03-31T07:50:40;13.90;59.10
26579;DHT22;14227;47.674;19.320;2023-03-31T07:53:06;13.90;59.00
26579;DHT22;14227;47.674;19.320;2023-03-31T07:55:32;13.90;58.90
26579;DHT22;14227;47.674;19.320;2023-03-31T07:57:58;14.00;58.80
26579;DHT22;14227;47.674;19.320;2023-03-31T08:00:24;14.00;58.50
26579;DHT22;14227;47.674;19.320;2023-03-31T08:02:50;14.10;58.80
26579;DHT22;14227;47.674;19.320;2023-03-31T08:05:17;14.20;58.80
26579;DHT22;14227;47.674;19.320;2023-03-31T08:07:45;14.20;58.70
26579;DHT22;14227;47.674;19.320;2023-03-31T08:10:19;14.30;58.10
26579;DHT22;14227;47.674;19.320;2023-03-31T08:12:45;14.40;57.90
26579;DHT22;14227;47.674;19.320;2023-03-31T08:15:11;14.40;57.80
26579;DHT22;14227;47.674;19.320;2023-03-31T08:17:37;14.50;57.70
26579;DHT22;14227;47.674;19.320;2023-03-31T08:20:04;14.60;57.50
26579;DHT22;14227;47.674;19.320;2023-03-31T08:22:32;14.70;57.20
26579;DHT22;14227;47.674;19.320;2023-03-31T08:24:57;14.70;57.20
26579;DHT22;14227;47.674;19.320;2023-03-31T08:27:23;14.70;56.90
26579;DHT22;14227;47.674;19.320;2023-03-31T08:29:50;14.80;57.10
26579;DHT22;14227;47.674;19.320;2023-03-31T08:32:16;14.90;57.00
26579;DHT22;14227;47.674;19.320;2023-03-31T08:34:42;15.40;57.10
26579;DHT22;14227;47.674;19.320;2023-03-31T08:37:08;16.40;54.90
26579;DHT22;14227;47.674;19.320;2023-03-31T08:39:34;17.50;50.70
26579;DHT22;14227;47.674;19.320;2023-03-31T08:47:41;20.10;43.00
26579;DHT22;14227;47.674;19.320;2023-03-31T08:50:14;20.60;41.00
26579;DHT22;14227;47.674;19.320;2023-03-31T08:55:27;21.00;38.30
26579;DHT22;14227;47.674;19.320;2023-03-31T09:06:36;22.70;34.50
26579;DHT22;14227;47.674;19.320;2023-03-31T09:09:05;23.10;34.30
26579;DHT22;14227;47.674;19.320;2023-03-31T09:11:51;23.30;33.80
26579;DHT22;14227;47.674;19.320;2023-03-31T09:14:32;23.50;33.00
26579;DHT22;14227;47.674;19.320;2023-03-31T09:17:06;23.80;32.90
26579;DHT22;14227;47.674;19.320;2023-03-31T09:19:40;24.10;31.00
26579;DHT22;14227;47.674;19.320;2023-03-31T09:22:19;24.30;30.40
26579;DHT22;14227;47.674;19.320;2023-03-31T09:24:57;24.50;28.80
26579;DHT22;14227;47.674;19.320;2023-03-31T09:27:27;24.20;29.50
26579;DHT22;14227;47.674;19.320;2023-03-31T09:30:08;24.20;29.50
26579;DHT22;14227;47.674;19.320;2023-03-31T09:32:36;24.50;29.70
26579;DHT22;14227;47.674;19.320;2023-03-31T09:35:23;24.80;30.60
26579;DHT22;14227;47.674;19.320;2023-03-31T09:37:53;25.10;27.20
26579;DHT22;14227;47.674;19.320;2023-03-31T09:40:24;25.10;26.90
26579;DHT22;14227;47.674;19.320;2023-03-31T09:43:03;25.30;28.20
26579;DHT22;14227;47.674;19.320;2023-03-31T09:45:30;25.80;27.30
26579;DHT22;14227;47.674;19.320;2023-03-31T09:48:01;26.30;27.60
26579;DHT22;14227;47.674;19.320;2023-03-31T09:50:28;26.00;27.40
26579;DHT22;14227;47.674;19.320;2023-03-31T09:52:59;25.50;27.20
26579;DHT22;14227;47.674;19.320;2023-03-31T09:55:49;25.30;27.10
26579;DHT22;14227;47.674;19.320;2023-03-31T09:58:17;25.50;28.00
26579;DHT22;14227;47.674;19.320;2023-03-31T10:00:57;25.70;27.30
26579;DHT22;14227;47.674;19.320;2023-03-31T10:03:24;25.70;25.40
26579;DHT22;14227;47.674;19.320;2023-03-31T10:05:54;25.80;24.80
26579;DHT22;14227;47.674;19.320;2023-03-31T10:10:50;24.90;25.80
26579;DHT22;14227;47.674;19.320;2023-03-31T10:13:21;24.60;26.60
26579;DHT22;14227;47.674;19.320;2023-03-31T10:16:20;24.20;28.10
26579;DHT22;14227;47.674;19.320;2023-03-31T10:18:46;24.50;27.80
26579;DHT22;14227;47.674;19.320;2023-03-31T10:21:23;25.10;28.20
26579;DHT22;14227;47.674;19.320;2023-03-31T10:23:50;25.90;27.40
26579;DHT22;14227;47.674;19.320;2023-03-31T10:26:24;25.80;27.40
26579;DHT22;14227;47.674;19.320;2023-03-31T10:28:51;25.50;27.20
26579;DHT22;14227;47.674;19.320;2023-03-31T10:31:19;26.00;26.10
26579;DHT22;14227;47.674;19.320;2023-03-31T10:33:49;26.70;26.90
26579;DHT22;14227;47.674;19.320;2023-03-31T10:36:26;27.30;25.30
26579;DHT22;14227;47.674;19.320;2023-03-31T10:38:54;27.60;25.50
26579;DHT22;14227;47.674;19.320;2023-03-31T10:41:27;27.90;24.60
26579;DHT22;14227;47.674;19.320;2023-03-31T10:43:56;28.20;24.30
26579;DHT22;14227;47.674;19.320;2023-03-31T10:46:45;28.20;22.60
26579;DHT22;14227;47.674;19.320;2023-03-31T10:51:55;29.30;22.50
26579;DHT22;14227;47.674;19.320;2023-03-31T10:54:22;29.70;22.00
26579;DHT22;14227;47.674;19.320;2023-03-31T10:56:54;30.10;21.80
26579;DHT22;14227;47.674;19.320;2023-03-31T11:05:50;31.50;19.40
26579;DHT22;14227;47.674;19.320;2023-03-31T11:23:25;30.80;19.80
26579;DHT22;14227;47.674;19.320;2023-03-31T11:26:23;29.90;20.30
26579;DHT22;14227;47.674;19.320;2023-03-31T11:35:05;30.70;20.00
26579;DHT22;14227;47.674;19.320;2023-03-31T11:40:35;31.10;19.50
26579;DHT22;14227;47.674;19.320;2023-03-31T11:45:42;30.30;19.10
26579;DHT22;14227;47.674;19.320;2023-03-31T11:48:24;29.50;20.00
26579;DHT22;14227;47.674;19.320;2023-03-31T11:50:52;28.60;20.50
26579;DHT22;14227;47.674;19.320;2023-03-31T11:53:24;27.90;22.30
26579;DHT22;14227;47.674;19.320;2023-03-31T11:55:53;27.30;22.90
26579;DHT22;14227;47.674;19.320;2023-03-31T11:58:42;26.70;23.20
26579;DHT22;14227;47.674;19.320;2023-03-31T12:06:57;25.80;24.90
26579;DHT22;14227;47.674;19.320;2023-03-31T12:10:28;25.80;25.40
26579;DHT22;14227;47.674;19.320;2023-03-31T12:12:38;26.00;25.10
26579;DHT22;14227;47.674;19.320;2023-03-31T12:15:17;26.10;26.50
26579;DHT22;14227;47.674;19.320;2023-03-31T12:17:49;26.60;24.90
26579;DHT22;14227;47.674;19.320;2023-03-31T12:20:28;27.40;23.60
26579;DHT22;14227;47.674;19.320;2023-03-31T12:22:57;28.30;23.20
26579;DHT22;14227;47.674;19.320;2023-03-31T12:25:23;28.90;21.50
26579;DHT22;14227;47.674;19.320;2023-03-31T12:27:51;28.90;21.70
26579;DHT22;14227;47.674;19.320;2023-03-31T12:30:37;29.00;21.40
26579;DHT22;14227;47.674;19.320;2023-03-31T12:33:12;28.60;21.50
26579;DHT22;14227;47.674;19.320;2023-03-31T12:57:29;21.70;29.80
26579;DHT22;14227;47.674;19.320;2023-03-31T13:02:37;21.10;31.30
26579;DHT22;14227;47.674;19.320;2023-03-31T13:05:43;20.90;32.50
26579;DHT22;14227;47.674;19.320;2023-03-31T13:08:09;20.70;33.00
26579;DHT22;14227;47.674;19.320;2023-03-31T13:10:56;20.50;33.30
26579;DHT22;14227;47.674;19.320;2023-03-31T13:13:22;20.40;33.20
26579;DHT22;14227;47.674;19.320;2023-03-31T13:15:54;20.30;33.10
26579;DHT22;14227;47.674;19.320;2023-03-31T13:18:21;20.20;33.00
26579;DHT22;14227;47.674;19.320;2023-03-31T13:21:03;20.10;32.90
26579;DHT22;14227;47.674;19.320;2023-03-31T13:23:33;20.00;32.80
26579;DHT22;14227;47.674;19.320;2023-03-31T13:26:01;19.90;33.70
26579;DHT22;14227;47.674;19.320;2023-03-31T13:28:41;19.90;35.00
26579;DHT22;14227;47.674;19.320;2023-03-31T13:31:12;19.80;35.40
26579;DHT22;14227;47.674;19.320;2023-03-31T13:33:58;19.80;36.00
26579;DHT22;14227;47.674;19.320;2023-03-31T14:16:44;19.40;39.50
26579;DHT22;14227;47.674;19.320;2023-03-31T14:27:55;19.20;40.20
26579;DHT22;14227;47.674;19.320;2023-03-31T14:37:05;19.10;40.10
26579;DHT22;14227;47.674;19.320;2023-03-31T14:40:13;19.00;40.60
26579;DHT22;14227;47.674;19.320;2023-03-31T21:18:12;16.70;51.40
26579;DHT22;14227;47.674;19.320;2023-03-31T21:55:04;16.50;51.70
26579;DHT22;14227;47.674;19.320;2023-03-31T21:58:03;16.50;51.70
26579;DHT22;14227;47.674;19.320;2023-03-31T22:00:31;16.50;51.70
26579;DHT22;14227;47.674;19.320;2023-03-31T22:02:58;16.50;51.70
26579;DHT22;14227;47.674;19.320;2023-03-31T22:05:50;16.50;52.50
26579;DHT22;14227;47.674;19.320;2023-03-31T22:08:42;16.50;51.80
26579;DHT22;14227;47.674;19.320;2023-03-31T22:11:10;16.50;51.70
26579;DHT22;14227;47.674;19.320;2023-03-31T22:13:42;16.50;52.00
26579;DHT22;14227;47.674;19.320;2023-03-31T22:16:17;16.50;52.00
26579;DHT22;14227;47.674;19.320;2023-03-31T22:18:45;16.50;51.90
26579;DHT22;14227;47.674;19.320;2023-03-31T22:21:30;16.50;52.10
26579;DHT22;14227;47.674;19.320;2023-03-31T22:24:20;16.50;52.00
26579;DHT22;14227;47.674;19.320;2023-03-31T22:26:54;16.50;52.00
26579;DHT22;14227;47.674;19.320;2023-03-31T22:29:34;16.50;52.20
26579;DHT22;14227;47.674;19.320;2023-03-31T22:32:01;16.50;52.20
26579;DHT22;14227;47.674;19.320;2023-03-31T22:34:50;16.50;52.30
26579;DHT22;14227;47.674;19.320;2023-03-31T22:37:16;16.50;52.00
26579;DHT22;14227;47.674;19.320;2023-03-31T22:39:45;16.50;52.20
26579;DHT22;14227;47.674;19.320;2023-03-31T22:42:14;16.40;52.10
26579;DHT22;14227;47.674;19.320;2023-03-31T22:44:43;16.40;52.20
26579;DHT22;14227;47.674;19.320;2023-03-31T22:47:46;16.40;52.30
26579;DHT22;14227;47.674;19.320;2023-03-31T22:50:22;16.40;52.10
26579;DHT22;14227;47.674;19.320;2023-03-31T22:52:50;16.40;52.30
26579;DHT22;14227;47.674;19.320;2023-03-31T22:55:22;16.40;52.30
26579;DHT22;14227;47.674;19.320;2023-03-31T22:57:48;16.40;52.30
26579;DHT22;14227;47.674;19.320;2023-03-31T23:00:15;16.40;52.30
26579;DHT22;14227;47.674;19.320;2023-03-31T23:03:21;16.40;52.30
26579;DHT22;14227;47.674;19.320;2023-03-31T23:06:13;16.40;52.30
26579;DHT22;14227;47.674;19.320;2023-03-31T23:09:08;16.40;52.30
26579;DHT22;14227;47.674;19.320;2023-03-31T23:12:25;16.40;52.30
26579;DHT22;14227;47.674;19.320;2023-03-31T23:15:35;16.30;52.20
26579;DHT22;14227;47.674;19.320;2023-03-31T23:18:49;16.40;52.30
26579;DHT22;14227;47.674;19.320;2023-03-31T23:21:30;16.30;52.20
26579;DHT22;14227;47.674;19.320;2023-03-31T23:24:19;16.30;52.40
26579;DHT22;14227;47.674;19.320;2023-03-31T23:27:08;16.30;52.50
26579;DHT22;14227;47.674;19.320;2023-03-31T23:30:07;16.30;52.60
26579;DHT22;14227;47.674;19.320;2023-03-31T23:32:37;16.30;52.60
26579;DHT22;14227;47.674;19.320;2023-03-31T23:35:33;16.30;52.30
26579;DHT22;14227;47.674;19.320;2023-03-31T23:38:31;16.20;52.50
26579;DHT22;14227;47.674;19.320;2023-03-31T23:41:11;16.20;52.50
26579;DHT22;14227;47.674;19.320;2023-03-31T23:44:07;16.20;52.60
26579;DHT22;14227;47.674;19.320;2023-03-31T23:47:32;16.20;52.60
26579;DHT22;14227;47.674;19.320;2023-03-31T23:50:44;16.20;52.60
26579;DHT22;14227;47.674;19.320;2023-03-31T23:53:15;16.20;52.60
26579;DHT22;14227;47.674;19.320;2023-03-31T23:56:18;16.20;52.80
26579;DHT22;14227;47.674;19.320;2023-03-31T23:59:25;16.20;52.80
